• Join FlightAware (Why Join?)
  • Login
  • US Flag 
08:12PM EDT


 

Airport Tracker/Info


-or-


 

Live Flight TrackerFlight Track Log ✈ N798SR ✈ 13-Nov-2013 ✈ KAPF - KCDK

Flight Track Log - Related Links

Times and Time Zones

All times are in EST time to prevent confusion due to time zone crossing. See the N798SR flight status page for this flight to view local times or setup timezone preferences in your user account.

Time Position Orientation Groundspeed Altitude Reporting Facility
EST Latitude Longitude Course Direction KTS MPH feet Rate Location/Type
11:12AM 26.7994 -81.8947 355° North 163 188 6,100  Level Miami Center
11:13AM 26.8411 -81.8989 355° North 168 193 6,100  Level Miami Center
11:14AM 26.8911 -81.9033 355° North 168 193 6,100 -60 Level Miami Center
11:15AM 26.9367 -81.9100 353° North 163 188 6,000 -60 Descending Miami Center
11:16AM 26.9806 -81.9142 355° North 158 182 6,000  Level Miami Center
11:17AM 27.0219 -81.9183 355° North 158 182 6,000  Level Miami Center
11:18AM 27.0678 -81.9228 355° North 158 182 6,000  Level Miami Center
11:19AM 27.1114 -81.9269 355° North 158 182 6,000  Level Miami Center
11:20AM 27.1572 -81.9311 355° North 158 182 6,000  Level Miami Center
11:21AM 27.2008 -81.9356 355° North 158 182 6,000  Level Miami Center
11:22AM 27.2447 -81.9397 355° North 158 182 6,000  Level Miami Center
11:23AM 27.2903 -81.9442 355° North 158 182 6,100  Climbing Miami Center
11:24AM 27.3342 -81.9483 355° North 158 182 6,100  Level Miami Center
11:25AM 27.3778 -81.9525 355° North 158 182 6,100  Level Miami Center
11:26AM 27.4194 -81.9569 355° North 158 182 6,100  Level Miami Center
11:27AM 27.4650 -81.9611 355° North 153 176 6,100  Level Miami Center
11:28AM 27.5067 -81.9678 352° North 153 176 6,100  Level Miami Center
11:29AM 27.5525 -81.9675 360° North 154 177 6,100  Level Miami Center
11:30AM 27.5961 -81.9717 355° North 154 177 6,100  Level Miami Center
11:31AM 27.6397 -81.9783 353° North 154 177 6,100  Level Miami Center
11:32AM 27.6750 -81.9822 354° North 154 177 6,100  Level Miami Center
11:33AM 27.7189 -81.9867 355° North 154 177 6,100  Level Miami Center
11:34AM 27.7708 -81.9911 356° North 159 183 6,100  Level Miami Center
11:35AM 27.8164 -81.9981 352° North 159 183 6,100  Level Miami Center
11:36AM 27.8581 -82.0022 355° North 159 183 6,100  Level Miami Center
11:37AM 27.9017 -82.0067 355° North 159 183 6,100  Level Miami Center
11:38AM 27.9433 -82.0108 355° North 159 183 6,100  Level Miami Center
11:39AM 28.0000 -82.0167 355° North 156 180 6,100  Level Tampa TRACON
11:40AM 28.0333 -82.0500 319° Northwest 159 183 6,100  Level Tampa TRACON
11:42AM 28.0833 -82.0667 344° North 161 185 6,100  Level Tampa TRACON
11:42AM 28.1167 -82.1000 319° Northwest 160 184 6,100  Level Tampa TRACON
11:43AM 28.1500 -82.1167 336° Northwest 157 181 6,100  Level Tampa TRACON
11:44AM 28.1833 -82.1500 319° Northwest 158 182 6,100  Level Tampa TRACON
11:45AM 28.2333 -82.1667 344° North 160 184 6,100  Level Tampa TRACON
11:46AM 28.2667 -82.1833 336° Northwest 158 182 6,100  Level Tampa TRACON
11:47AM 28.3000 -82.2167 319° Northwest 160 184 6,100  Level Tampa TRACON
11:48AM 28.3333 -82.2333 336° Northwest 162 186 6,100  Level Tampa TRACON
11:49AM 28.3833 -82.2667 330° Northwest 158 182 6,100  Level Tampa TRACON
11:50AM 28.4167 -82.2833 336° Northwest 157 181 6,100  Level Tampa TRACON
11:51AM 28.4500 -82.3167 319° Northwest 156 180 6,100 60 Level Tampa TRACON
11:53AM 28.5161 -82.3517 335° Northwest 155 178 6,300  Climbing Jacksonville Center
11:54AM 28.5558 -82.3750 333° Northwest 156 180 6,200 -60 Descending Jacksonville Center
11:55AM 28.5914 -82.3983 330° Northwest 155 178 6,200  Level Jacksonville Center
11:56AM 28.6311 -82.4242 330° Northwest 157 181 6,200  Level Jacksonville Center
11:57AM 28.6667 -82.4478 330° Northwest 153 176 6,200  Level Jacksonville Center
11:58AM 28.7044 -82.4736 329° Northwest 155 178 6,200  Level Jacksonville Center
11:59AM 28.7461 -82.4972 334° Northwest 157 181 6,200  Level Jacksonville Center
12:00PM 28.7714 -82.5372 306° West 162 186 6,200  Level Jacksonville Center
12:01PM 28.7986 -82.5775 308° West 163 188 6,200  Level Jacksonville Center
12:02PM 28.8258 -82.6153 309° West 163 188 6,200  Level Jacksonville Center
12:03PM 28.8572 -82.6556 312° West 159 183 6,300 60 Climbing Jacksonville Center